sensor_id;sensor_type;location;lat;lon;timestamp;pressure;altitude;pressure_sealevel;temperature;humidity
74905;BME280;63465;50.862;6.220;2023-06-19T00:01:39;99269.81;;;20.55;99.83
74905;BME280;63465;50.862;6.220;2023-06-19T00:04:04;99278.31;;;20.60;99.81
74905;BME280;63465;50.862;6.220;2023-06-19T00:06:30;99271.66;;;20.54;100.00
74905;BME280;63465;50.862;6.220;2023-06-19T00:08:55;99270.25;;;20.60;99.04
74905;BME280;63465;50.862;6.220;2023-06-19T00:11:20;99273.09;;;20.58;99.66
74905;BME280;63465;50.862;6.220;2023-06-19T00:13:46;99279.59;;;20.56;99.85
74905;BME280;63465;50.862;6.220;2023-06-19T00:16:11;99273.91;;;20.59;99.32
74905;BME280;63465;50.862;6.220;2023-06-19T00:18:36;99282.06;;;20.49;100.00
74905;BME280;63465;50.862;6.220;2023-06-19T00:21:06;99271.00;;;20.52;100.00
74905;BME280;63465;50.862;6.220;2023-06-19T00:23:32;99281.13;;;20.30;100.00
74905;BME280;63465;50.862;6.220;2023-06-19T00:25:57;99281.03;;;20.22;100.00
74905;BME280;63465;50.862;6.220;2023-06-19T00:28:23;99280.38;;;20.38;100.00
74905;BME280;63465;50.862;6.220;2023-06-19T00:30:49;99279.25;;;20.41;100.00
74905;BME280;63465;50.862;6.220;2023-06-19T00:33:14;99282.59;;;20.15;100.00
74905;BME280;63465;50.862;6.220;2023-06-19T00:35:39;99292.28;;;20.08;100.00
74905;BME280;63465;50.862;6.220;2023-06-19T00:38:07;99269.28;;;20.51;100.00
74905;BME280;63465;50.862;6.220;2023-06-19T00:40:33;99289.00;;;20.14;100.00
74905;BME280;63465;50.862;6.220;2023-06-19T00:42:59;99288.59;;;20.09;100.00
74905;BME280;63465;50.862;6.220;2023-06-19T00:45:25;99294.66;;;20.21;100.00
74905;BME280;63465;50.862;6.220;2023-06-19T00:47:55;99291.00;;;20.40;100.00
74905;BME280;63465;50.862;6.220;2023-06-19T00:50:21;99288.66;;;20.27;100.00
74905;BME280;63465;50.862;6.220;2023-06-19T00:52:47;99297.72;;;20.36;99.86
74905;BME280;63465;50.862;6.220;2023-06-19T00:55:13;99297.53;;;20.47;98.88
74905;BME280;63465;50.862;6.220;2023-06-19T00:57:40;99299.16;;;20.58;96.69
74905;BME280;63465;50.862;6.220;2023-06-19T01:00:06;99301.78;;;20.49;96.67
74905;BME280;63465;50.862;6.220;2023-06-19T01:02:33;99299.53;;;20.45;96.83
74905;BME280;63465;50.862;6.220;2023-06-19T01:04:59;99301.88;;;20.85;92.21
74905;BME280;63465;50.862;6.220;2023-06-19T01:10:01;99299.28;;;20.94;90.91
74905;BME280;63465;50.862;6.220;2023-06-19T01:12:35;99293.03;;;20.93;90.75
74905;BME280;63465;50.862;6.220;2023-06-19T01:15:03;99300.97;;;20.95;90.00
74905;BME280;63465;50.862;6.220;2023-06-19T01:17:30;99297.22;;;20.88;90.50
74905;BME280;63465;50.862;6.220;2023-06-19T01:19:56;99302.75;;;20.86;90.75
74905;BME280;63465;50.862;6.220;2023-06-19T01:22:29;99297.09;;;20.79;91.27
74905;BME280;63465;50.862;6.220;2023-06-19T01:24:55;99308.91;;;20.78;91.27
74905;BME280;63465;50.862;6.220;2023-06-19T01:27:22;99309.50;;;20.62;92.87
74905;BME280;63465;50.862;6.220;2023-06-19T01:29:48;99302.94;;;20.75;91.83
74905;BME280;63465;50.862;6.220;2023-06-19T01:32:18;99311.22;;;20.63;92.57
74905;BME280;63465;50.862;6.220;2023-06-19T01:34:46;99304.25;;;20.61;93.42
74905;BME280;63465;50.862;6.220;2023-06-19T01:37:12;99302.94;;;20.75;92.60
74905;BME280;63465;50.862;6.220;2023-06-19T01:39:39;99311.97;;;20.83;92.24
74905;BME280;63465;50.862;6.220;2023-06-19T01:42:05;99320.31;;;20.90;91.50
74905;BME280;63465;50.862;6.220;2023-06-19T01:44:32;99320.16;;;20.92;91.16
74905;BME280;63465;50.862;6.220;2023-06-19T01:46:57;99322.84;;;20.92;91.42
74905;BME280;63465;50.862;6.220;2023-06-19T01:49:23;99329.72;;;20.86;91.78
74905;BME280;63465;50.862;6.220;2023-06-19T01:51:48;99329.41;;;20.89;91.67
74905;BME280;63465;50.862;6.220;2023-06-19T01:54:13;99333.16;;;20.78;92.32
74905;BME280;63465;50.862;6.220;2023-06-19T01:56:39;99338.41;;;20.80;92.61
74905;BME280;63465;50.862;6.220;2023-06-19T01:59:04;99340.09;;;20.81;92.61
74905;BME280;63465;50.862;6.220;2023-06-19T02:01:29;99336.50;;;20.90;91.75
74905;BME280;63465;50.862;6.220;2023-06-19T02:03:55;99343.09;;;20.78;92.56
74905;BME280;63465;50.862;6.220;2023-06-19T02:06:20;99351.84;;;20.90;91.96
74905;BME280;63465;50.862;6.220;2023-06-19T02:08:47;99355.28;;;20.82;92.63
74905;BME280;63465;50.862;6.220;2023-06-19T02:11:13;99350.47;;;20.76;92.80
74905;BME280;63465;50.862;6.220;2023-06-19T02:13:38;99352.03;;;20.78;93.15
74905;BME280;63465;50.862;6.220;2023-06-19T02:16:04;99358.97;;;20.81;93.38
74905;BME280;63465;50.862;6.220;2023-06-19T02:18:29;99366.16;;;20.90;92.76
74905;BME280;63465;50.862;6.220;2023-06-19T02:20:54;99367.19;;;20.89;93.47
74905;BME280;63465;50.862;6.220;2023-06-19T02:23:19;99365.69;;;20.95;93.50
74905;BME280;63465;50.862;6.220;2023-06-19T02:25:45;99370.94;;;20.69;95.58
74905;BME280;63465;50.862;6.220;2023-06-19T02:28:10;99373.50;;;20.60;97.11
74905;BME280;63465;50.862;6.220;2023-06-19T02:30:35;99383.00;;;20.64;97.51
74905;BME280;63465;50.862;6.220;2023-06-19T02:33:03;99381.78;;;20.49;99.56
74905;BME280;63465;50.862;6.220;2023-06-19T02:35:30;99392.31;;;20.23;100.00
74905;BME280;63465;50.862;6.220;2023-06-19T02:37:55;99390.34;;;20.15;100.00
74905;BME280;63465;50.862;6.220;2023-06-19T02:40:20;99389.25;;;20.08;100.00
74905;BME280;63465;50.862;6.220;2023-06-19T02:42:45;99396.91;;;20.03;100.00
74905;BME280;63465;50.862;6.220;2023-06-19T02:45:11;99404.84;;;19.94;100.00
74905;BME280;63465;50.862;6.220;2023-06-19T02:47:36;99412.78;;;19.96;100.00
74905;BME280;63465;50.862;6.220;2023-06-19T02:50:03;99396.66;;;19.86;100.00
74905;BME280;63465;50.862;6.220;2023-06-19T02:52:29;99404.97;;;19.73;100.00
74905;BME280;63465;50.862;6.220;2023-06-19T02:54:55;99406.41;;;19.77;100.00
74905;BME280;63465;50.862;6.220;2023-06-19T02:57:20;99415.16;;;19.70;100.00
74905;BME280;63465;50.862;6.220;2023-06-19T02:59:45;99426.50;;;19.64;100.00
74905;BME280;63465;50.862;6.220;2023-06-19T03:02:11;99422.94;;;19.63;100.00
74905;BME280;63465;50.862;6.220;2023-06-19T03:04:36;99434.41;;;19.55;100.00
74905;BME280;63465;50.862;6.220;2023-06-19T03:07:02;99431.84;;;19.54;100.00
74905;BME280;63465;50.862;6.220;2023-06-19T03:09:28;99431.16;;;19.61;100.00
74905;BME280;63465;50.862;6.220;2023-06-19T03:11:53;99428.47;;;19.61;100.00
74905;BME280;63465;50.862;6.220;2023-06-19T03:14:19;99444.31;;;19.65;100.00
74905;BME280;63465;50.862;6.220;2023-06-19T03:16:45;99438.09;;;19.64;100.00
74905;BME280;63465;50.862;6.220;2023-06-19T03:19:10;99435.69;;;19.71;100.00
74905;BME280;63465;50.862;6.220;2023-06-19T03:21:35;99434.84;;;19.60;100.00
74905;BME280;63465;50.862;6.220;2023-06-19T03:24:00;99443.91;;;19.59;100.00
74905;BME280;63465;50.862;6.220;2023-06-19T03:26:26;99451.13;;;19.59;100.00
74905;BME280;63465;50.862;6.220;2023-06-19T03:28:51;99454.25;;;19.54;100.00
74905;BME280;63465;50.862;6.220;2023-06-19T03:31:17;99450.00;;;19.61;100.00
74905;BME280;63465;50.862;6.220;2023-06-19T03:33:42;99459.50;;;19.66;100.00
74905;BME280;63465;50.862;6.220;2023-06-19T03:36:08;99468.84;;;19.61;100.00
74905;BME280;63465;50.862;6.220;2023-06-19T03:38:34;99470.81;;;19.59;100.00
74905;BME280;63465;50.862;6.220;2023-06-19T03:41:00;99470.97;;;19.58;100.00
74905;BME280;63465;50.862;6.220;2023-06-19T03:43:25;99483.44;;;19.59;100.00
74905;BME280;63465;50.862;6.220;2023-06-19T03:45:50;99482.47;;;19.70;100.00
74905;BME280;63465;50.862;6.220;2023-06-19T03:48:16;99485.44;;;19.76;100.00
74905;BME280;63465;50.862;6.220;2023-06-19T03:50:42;99489.66;;;19.59;100.00
74905;BME280;63465;50.862;6.220;2023-06-19T03:53:07;99501.41;;;19.58;100.00
74905;BME280;63465;50.862;6.220;2023-06-19T03:55:33;99506.38;;;19.63;100.00
74905;BME280;63465;50.862;6.220;2023-06-19T03:57:58;99506.50;;;19.61;100.00
74905;BME280;63465;50.862;6.220;2023-06-19T04:00:23;99502.69;;;19.64;100.00
74905;BME280;63465;50.862;6.220;2023-06-19T04:02:49;99508.22;;;19.63;100.00
74905;BME280;63465;50.862;6.220;2023-06-19T04:05:14;99515.00;;;19.57;100.00
74905;BME280;63465;50.862;6.220;2023-06-19T04:07:43;99526.78;;;19.56;100.00
74905;BME280;63465;50.862;6.220;2023-06-19T04:10:08;99531.00;;;19.58;100.00
74905;BME280;63465;50.862;6.220;2023-06-19T04:12:34;99534.66;;;19.48;100.00
74905;BME280;63465;50.862;6.220;2023-06-19T04:14:59;99531.84;;;19.49;100.00
74905;BME280;63465;50.862;6.220;2023-06-19T04:17:25;99536.78;;;19.44;100.00
74905;BME280;63465;50.862;6.220;2023-06-19T04:19:50;99527.47;;;19.48;100.00
74905;BME280;63465;50.862;6.220;2023-06-19T04:22:15;99536.50;;;19.37;100.00
74905;BME280;63465;50.862;6.220;2023-06-19T04:24:41;99538.22;;;19.48;100.00
74905;BME280;63465;50.862;6.220;2023-06-19T04:27:06;99536.25;;;19.60;100.00
74905;BME280;63465;50.862;6.220;2023-06-19T04:29:33;99546.47;;;19.56;100.00
74905;BME280;63465;50.862;6.220;2023-06-19T04:31:59;99536.09;;;19.52;100.00
74905;BME280;63465;50.862;6.220;2023-06-19T04:34:25;99543.88;;;19.45;100.00
74905;BME280;63465;50.862;6.220;2023-06-19T04:36:50;99541.88;;;19.37;100.00
74905;BME280;63465;50.862;6.220;2023-06-19T04:39:16;99546.97;;;19.40;100.00
74905;BME280;63465;50.862;6.220;2023-06-19T04:41:43;99545.06;;;19.62;100.00
74905;BME280;63465;50.862;6.220;2023-06-19T04:44:09;99535.63;;;19.37;100.00
74905;BME280;63465;50.862;6.220;2023-06-19T04:46:37;99535.06;;;19.43;100.00
74905;BME280;63465;50.862;6.220;2023-06-19T04:49:02;99541.34;;;19.53;100.00
74905;BME280;63465;50.862;6.220;2023-06-19T04:51:30;99531.47;;;19.64;100.00
74905;BME280;63465;50.862;6.220;2023-06-19T04:53:55;99531.28;;;19.46;100.00
74905;BME280;63465;50.862;6.220;2023-06-19T04:56:21;99530.28;;;19.47;100.00
74905;BME280;63465;50.862;6.220;2023-06-19T04:58:46;99522.09;;;19.48;100.00
74905;BME280;63465;50.862;6.220;2023-06-19T05:01:12;99528.31;;;19.58;100.00
74905;BME280;63465;50.862;6.220;2023-06-19T05:03:39;99525.63;;;19.58;100.00
74905;BME280;63465;50.862;6.220;2023-06-19T05:06:04;99528.50;;;19.67;100.00
74905;BME280;63465;50.862;6.220;2023-06-19T05:08:29;99524.81;;;19.68;100.00
74905;BME280;63465;50.862;6.220;2023-06-19T05:10:55;99531.84;;;19.80;100.00
74905;BME280;63465;50.862;6.220;2023-06-19T05:13:21;99524.66;;;19.69;100.00
74905;BME280;63465;50.862;6.220;2023-06-19T05:15:46;99519.69;;;19.65;100.00
74905;BME280;63465;50.862;6.220;2023-06-19T05:18:12;99529.63;;;19.74;100.00
74905;BME280;63465;50.862;6.220;2023-06-19T05:20:37;99527.56;;;19.87;100.00
74905;BME280;63465;50.862;6.220;2023-06-19T05:23:02;99534.25;;;19.83;100.00
74905;BME280;63465;50.862;6.220;2023-06-19T05:25:28;99537.22;;;20.00;100.00
74905;BME280;63465;50.862;6.220;2023-06-19T05:27:53;99548.00;;;20.00;100.00
74905;BME280;63465;50.862;6.220;2023-06-19T05:30:18;99548.56;;;19.93;100.00
74905;BME280;63465;50.862;6.220;2023-06-19T05:32:44;99555.94;;;20.01;100.00
74905;BME280;63465;50.862;6.220;2023-06-19T05:35:09;99558.06;;;19.98;100.00
74905;BME280;63465;50.862;6.220;2023-06-19T05:37:34;99559.38;;;20.03;100.00
74905;BME280;63465;50.862;6.220;2023-06-19T05:39:59;99554.13;;;20.02;100.00
74905;BME280;63465;50.862;6.220;2023-06-19T05:42:25;99562.19;;;20.02;100.00
74905;BME280;63465;50.862;6.220;2023-06-19T05:44:50;99560.50;;;20.10;100.00
74905;BME280;63465;50.862;6.220;2023-06-19T05:47:16;99569.72;;;20.08;100.00
74905;BME280;63465;50.862;6.220;2023-06-19T05:49:42;99561.03;;;20.04;100.00
74905;BME280;63465;50.862;6.220;2023-06-19T05:52:08;99554.25;;;20.10;100.00
74905;BME280;63465;50.862;6.220;2023-06-19T05:54:33;99563.03;;;20.12;100.00
74905;BME280;63465;50.862;6.220;2023-06-19T05:56:58;99546.47;;;20.07;100.00
74905;BME280;63465;50.862;6.220;2023-06-19T05:59:24;99554.84;;;20.33;100.00
74905;BME280;63465;50.862;6.220;2023-06-19T06:01:49;99559.22;;;20.44;100.00
74905;BME280;63465;50.862;6.220;2023-06-19T06:04:18;99559.50;;;20.60;100.00
74905;BME280;63465;50.862;6.220;2023-06-19T06:06:46;99563.78;;;20.24;100.00
74905;BME280;63465;50.862;6.220;2023-06-19T06:09:12;99570.56;;;20.18;100.00
74905;BME280;63465;50.862;6.220;2023-06-19T06:11:38;99577.81;;;20.37;100.00
74905;BME280;63465;50.862;6.220;2023-06-19T06:14:03;99578.66;;;20.38;100.00
74905;BME280;63465;50.862;6.220;2023-06-19T06:16:29;99572.84;;;20.23;100.00
74905;BME280;63465;50.862;6.220;2023-06-19T06:18:54;99575.25;;;20.26;100.00
74905;BME280;63465;50.862;6.220;2023-06-19T06:21:19;99576.66;;;20.40;100.00
74905;BME280;63465;50.862;6.220;2023-06-19T06:23:45;99582.94;;;20.40;100.00
74905;BME280;63465;50.862;6.220;2023-06-19T06:26:10;99585.50;;;20.61;100.00
74905;BME280;63465;50.862;6.220;2023-06-19T06:28:36;99584.06;;;20.67;100.00
74905;BME280;63465;50.862;6.220;2023-06-19T06:31:01;99602.38;;;20.54;100.00
74905;BME280;63465;50.862;6.220;2023-06-19T06:33:27;99606.47;;;20.48;100.00
74905;BME280;63465;50.862;6.220;2023-06-19T06:35:54;99603.50;;;20.61;100.00
74905;BME280;63465;50.862;6.220;2023-06-19T06:38:20;99604.22;;;20.92;100.00
74905;BME280;63465;50.862;6.220;2023-06-19T06:40:45;99607.88;;;21.01;100.00
74905;BME280;63465;50.862;6.220;2023-06-19T06:43:11;99608.91;;;21.00;100.00
74905;BME280;63465;50.862;6.220;2023-06-19T06:45:36;99617.13;;;20.89;100.00
74905;BME280;63465;50.862;6.220;2023-06-19T06:48:06;99614.72;;;20.95;100.00
74905;BME280;63465;50.862;6.220;2023-06-19T06:50:32;99608.50;;;20.65;100.00
74905;BME280;63465;50.862;6.220;2023-06-19T06:52:57;99611.00;;;21.06;100.00
74905;BME280;63465;50.862;6.220;2023-06-19T06:55:22;99622.03;;;21.32;100.00
74905;BME280;63465;50.862;6.220;2023-06-19T06:57:48;99616.97;;;21.10;100.00
74905;BME280;63465;50.862;6.220;2023-06-19T07:00:13;99617.38;;;21.15;100.00
74905;BME280;63465;50.862;6.220;2023-06-19T07:02:39;99619.66;;;21.19;100.00
74905;BME280;63465;50.862;6.220;2023-06-19T07:05:08;99613.00;;;20.94;100.00
74905;BME280;63465;50.862;6.220;2023-06-19T07:07:33;99626.47;;;21.04;100.00
74905;BME280;63465;50.862;6.220;2023-06-19T07:09:59;99612.97;;;21.14;100.00
74905;BME280;63465;50.862;6.220;2023-06-19T07:12:24;99620.81;;;21.64;100.00
74905;BME280;63465;50.862;6.220;2023-06-19T07:14:53;99609.66;;;21.77;100.00
74905;BME280;63465;50.862;6.220;2023-06-19T07:17:18;99623.59;;;21.35;100.00
74905;BME280;63465;50.862;6.220;2023-06-19T07:19:43;99633.50;;;21.54;100.00
74905;BME280;63465;50.862;6.220;2023-06-19T07:22:09;99637.25;;;21.04;100.00
74905;BME280;63465;50.862;6.220;2023-06-19T07:24:34;99650.19;;;21.20;100.00
74905;BME280;63465;50.862;6.220;2023-06-19T07:26:59;99654.16;;;20.96;100.00
74905;BME280;63465;50.862;6.220;2023-06-19T07:29:24;99665.53;;;21.19;100.00
74905;BME280;63465;50.862;6.220;2023-06-19T07:31:51;99648.56;;;21.57;100.00
74905;BME280;63465;50.862;6.220;2023-06-19T07:34:17;99653.44;;;21.81;100.00
74905;BME280;63465;50.862;6.220;2023-06-19T07:36:42;99654.03;;;21.75;100.00
74905;BME280;63465;50.862;6.220;2023-06-19T07:39:07;99649.41;;;21.57;100.00
74905;BME280;63465;50.862;6.220;2023-06-19T07:41:33;99650.06;;;21.69;100.00
74905;BME280;63465;50.862;6.220;2023-06-19T07:43:58;99647.75;;;22.12;100.00
74905;BME280;63465;50.862;6.220;2023-06-19T07:46:24;99657.06;;;21.62;100.00
74905;BME280;63465;50.862;6.220;2023-06-19T07:48:49;99651.16;;;21.29;100.00
74905;BME280;63465;50.862;6.220;2023-06-19T07:51:14;99649.00;;;21.52;100.00
74905;BME280;63465;50.862;6.220;2023-06-19T07:53:39;99667.13;;;21.69;100.00
74905;BME280;63465;50.862;6.220;2023-06-19T07:56:05;99646.91;;;22.39;97.13
74905;BME280;63465;50.862;6.220;2023-06-19T07:58:30;99655.16;;;22.27;97.04
74905;BME280;63465;50.862;6.220;2023-06-19T08:00:56;99651.31;;;22.58;95.01
74905;BME280;63465;50.862;6.220;2023-06-19T08:03:21;99654.94;;;22.49;95.13
74905;BME280;63465;50.862;6.220;2023-06-19T08:05:47;99650.72;;;23.53;89.94
74905;BME280;63465;50.862;6.220;2023-06-19T08:08:13;99650.28;;;22.95;90.61
74905;BME280;63465;50.862;6.220;2023-06-19T08:10:38;99652.88;;;23.49;87.09
74905;BME280;63465;50.862;6.220;2023-06-19T08:13:04;99656.00;;;23.62;84.25
74905;BME280;63465;50.862;6.220;2023-06-19T08:15:29;99649.13;;;23.15;86.93
74905;BME280;63465;50.862;6.220;2023-06-19T08:17:54;99646.41;;;23.68;84.34
74905;BME280;63465;50.862;6.220;2023-06-19T08:20:20;99645.84;;;23.30;84.57
74905;BME280;63465;50.862;6.220;2023-06-19T08:22:46;99656.22;;;23.17;85.10
74905;BME280;63465;50.862;6.220;2023-06-19T08:25:11;99652.94;;;23.57;84.75
74905;BME280;63465;50.862;6.220;2023-06-19T08:27:37;99661.25;;;23.56;86.76
74905;BME280;63465;50.862;6.220;2023-06-19T08:30:02;99655.56;;;24.01;82.96
74905;BME280;63465;50.862;6.220;2023-06-19T08:32:28;99659.03;;;23.85;81.10
74905;BME280;63465;50.862;6.220;2023-06-19T08:34:53;99659.78;;;23.96;81.17
74905;BME280;63465;50.862;6.220;2023-06-19T08:37:19;99667.97;;;23.51;82.16
74905;BME280;63465;50.862;6.220;2023-06-19T08:39:44;99658.41;;;24.43;77.21
74905;BME280;63465;50.862;6.220;2023-06-19T08:42:10;99661.88;;;25.27;72.55
74905;BME280;63465;50.862;6.220;2023-06-19T08:44:35;99663.63;;;23.85;79.54
74905;BME280;63465;50.862;6.220;2023-06-19T08:47:04;99670.31;;;23.02;85.01
74905;BME280;63465;50.862;6.220;2023-06-19T08:49:31;99677.59;;;22.84;88.76
74905;BME280;63465;50.862;6.220;2023-06-19T08:51:58;99667.50;;;23.56;85.49
74905;BME280;63465;50.862;6.220;2023-06-19T08:54:23;99679.91;;;23.14;87.72
74905;BME280;63465;50.862;6.220;2023-06-19T08:56:50;99677.69;;;25.07;80.19
74905;BME280;63465;50.862;6.220;2023-06-19T08:59:17;99676.31;;;25.03;79.12
74905;BME280;63465;50.862;6.220;2023-06-19T09:01:47;99681.41;;;25.47;74.06
74905;BME280;63465;50.862;6.220;2023-06-19T09:04:17;99686.84;;;25.47;70.94
74905;BME280;63465;50.862;6.220;2023-06-19T09:06:50;99682.06;;;25.24;74.14
74905;BME280;63465;50.862;6.220;2023-06-19T09:09:17;99676.13;;;25.37;73.46
74905;BME280;63465;50.862;6.220;2023-06-19T09:11:43;99679.50;;;24.65;74.42
74905;BME280;63465;50.862;6.220;2023-06-19T09:14:10;99678.84;;;25.13;75.47
74905;BME280;63465;50.862;6.220;2023-06-19T09:16:40;99677.50;;;24.92;74.74
74905;BME280;63465;50.862;6.220;2023-06-19T09:19:05;99690.66;;;24.11;76.23
74905;BME280;63465;50.862;6.220;2023-06-19T09:21:31;99684.56;;;25.84;71.28
74905;BME280;63465;50.862;6.220;2023-06-19T09:24:07;99681.91;;;25.34;69.88
74905;BME280;63465;50.862;6.220;2023-06-19T09:26:33;99671.91;;;25.35;68.23
74905;BME280;63465;50.862;6.220;2023-06-19T09:28:58;99671.47;;;26.66;63.61
74905;BME280;63465;50.862;6.220;2023-06-19T09:31:33;99685.28;;;26.17;66.59
74905;BME280;63465;50.862;6.220;2023-06-19T09:33:59;99686.34;;;25.02;72.12
74905;BME280;63465;50.862;6.220;2023-06-19T09:36:25;99683.25;;;25.55;68.07
74905;BME280;63465;50.862;6.220;2023-06-19T09:38:52;99689.09;;;25.99;65.17
74905;BME280;63465;50.862;6.220;2023-06-19T09:41:19;99689.13;;;25.91;65.04
74905;BME280;63465;50.862;6.220;2023-06-19T09:43:47;99681.38;;;26.51;60.02
74905;BME280;63465;50.862;6.220;2023-06-19T09:46:14;99684.38;;;25.77;65.31
74905;BME280;63465;50.862;6.220;2023-06-19T09:48:44;99677.84;;;26.42;62.96
74905;BME280;63465;50.862;6.220;2023-06-19T09:51:19;99680.69;;;25.70;66.68
74905;BME280;63465;50.862;6.220;2023-06-19T09:53:47;99685.13;;;25.62;64.51
74905;BME280;63465;50.862;6.220;2023-06-19T09:56:13;99684.91;;;25.72;64.12
74905;BME280;63465;50.862;6.220;2023-06-19T09:58:40;99682.03;;;27.08;58.54
74905;BME280;63465;50.862;6.220;2023-06-19T10:01:07;99678.03;;;26.72;59.72
74905;BME280;63465;50.862;6.220;2023-06-19T10:03:33;99687.22;;;26.40;61.25
74905;BME280;63465;50.862;6.220;2023-06-19T10:06:00;99671.94;;;26.93;59.60
74905;BME280;63465;50.862;6.220;2023-06-19T10:08:31;99671.88;;;27.39;57.32
74905;BME280;63465;50.862;6.220;2023-06-19T10:10:57;99676.53;;;27.84;53.71
74905;BME280;63465;50.862;6.220;2023-06-19T10:13:31;99669.84;;;27.71;53.49
74905;BME280;63465;50.862;6.220;2023-06-19T10:15:56;99676.31;;;27.17;54.92
74905;BME280;63465;50.862;6.220;2023-06-19T10:18:22;99679.69;;;26.50;57.13
74905;BME280;63465;50.862;6.220;2023-06-19T10:20:50;99679.59;;;27.36;55.44
74905;BME280;63465;50.862;6.220;2023-06-19T10:23:20;99682.16;;;27.82;52.59
74905;BME280;63465;50.862;6.220;2023-06-19T10:25:48;99688.81;;;26.88;55.28
74905;BME280;63465;50.862;6.220;2023-06-19T10:28:20;99679.53;;;25.48;61.03
74905;BME280;63465;50.862;6.220;2023-06-19T10:31:07;99676.41;;;25.75;58.88
74905;BME280;63465;50.862;6.220;2023-06-19T10:33:36;99681.34;;;27.05;57.72
74905;BME280;63465;50.862;6.220;2023-06-19T10:36:16;99678.38;;;27.53;53.42
74905;BME280;63465;50.862;6.220;2023-06-19T10:38:44;99674.53;;;27.63;53.05
74905;BME280;63465;50.862;6.220;2023-06-19T10:41:16;99677.97;;;27.80;53.68
74905;BME280;63465;50.862;6.220;2023-06-19T10:43:41;99680.25;;;27.38;55.28
74905;BME280;63465;50.862;6.220;2023-06-19T10:46:07;99670.31;;;27.90;51.60
74905;BME280;63465;50.862;6.220;2023-06-19T10:48:32;99680.03;;;26.47;56.76
74905;BME280;63465;50.862;6.220;2023-06-19T10:50:57;99677.50;;;28.06;51.81
74905;BME280;63465;50.862;6.220;2023-06-19T10:53:27;99682.84;;;28.29;50.58
74905;BME280;63465;50.862;6.220;2023-06-19T10:55:57;99672.84;;;27.47;53.62
74905;BME280;63465;50.862;6.220;2023-06-19T10:58:23;99673.44;;;26.02;57.80
74905;BME280;63465;50.862;6.220;2023-06-19T11:00:48;99670.09;;;27.32;54.74
74905;BME280;63465;50.862;6.220;2023-06-19T11:03:13;99664.00;;;27.07;56.28
74905;BME280;63465;50.862;6.220;2023-06-19T11:05:43;99665.34;;;28.08;50.91
74905;BME280;63465;50.862;6.220;2023-06-19T11:08:08;99662.88;;;28.28;51.39
74905;BME280;63465;50.862;6.220;2023-06-19T11:10:34;99662.59;;;28.75;50.54
74905;BME280;63465;50.862;6.220;2023-06-19T11:12:59;99656.69;;;28.56;50.45
74905;BME280;63465;50.862;6.220;2023-06-19T11:15:43;99651.72;;;28.60;47.73
74905;BME280;63465;50.862;6.220;2023-06-19T11:18:09;99654.06;;;27.82;49.29
74905;BME280;63465;50.862;6.220;2023-06-19T11:20:45;99651.22;;;28.56;48.86
74905;BME280;63465;50.862;6.220;2023-06-19T11:23:12;99656.56;;;29.29;46.37
74905;BME280;63465;50.862;6.220;2023-06-19T11:25:39;99656.66;;;29.14;48.76
74905;BME280;63465;50.862;6.220;2023-06-19T11:28:10;99657.81;;;27.81;51.42
74905;BME280;63465;50.862;6.220;2023-06-19T11:30:36;99657.34;;;28.58;49.24
74905;BME280;63465;50.862;6.220;2023-06-19T11:33:01;99658.31;;;29.37;47.33
74905;BME280;63465;50.862;6.220;2023-06-19T11:35:33;99656.00;;;28.33;49.68
74905;BME280;63465;50.862;6.220;2023-06-19T11:38:02;99648.91;;;27.72;49.78
74905;BME280;63465;50.862;6.220;2023-06-19T11:40:28;99650.75;;;28.16;49.53
74905;BME280;63465;50.862;6.220;2023-06-19T11:42:54;99646.75;;;28.49;47.72
74905;BME280;63465;50.862;6.220;2023-06-19T11:45:21;99650.47;;;29.06;45.05
74905;BME280;63465;50.862;6.220;2023-06-19T11:47:48;99646.69;;;29.28;43.48
74905;BME280;63465;50.862;6.220;2023-06-19T11:50:14;99637.88;;;27.50;47.28
74905;BME280;63465;50.862;6.220;2023-06-19T11:52:42;99643.66;;;26.48;51.61
74905;BME280;63465;50.862;6.220;2023-06-19T11:55:08;99647.34;;;28.29;47.47
74905;BME280;63465;50.862;6.220;2023-06-19T11:57:33;99646.59;;;28.57;47.36
74905;BME280;63465;50.862;6.220;2023-06-19T11:59:59;99644.00;;;28.49;48.56
74905;BME280;63465;50.862;6.220;2023-06-19T12:02:24;99646.09;;;26.89;51.88
74905;BME280;63465;50.862;6.220;2023-06-19T12:04:49;99648.66;;;26.59;52.02
74905;BME280;63465;50.862;6.220;2023-06-19T12:07:15;99654.88;;;28.27;48.59
74905;BME280;63465;50.862;6.220;2023-06-19T12:09:41;99653.69;;;27.70;49.04
74905;BME280;63465;50.862;6.220;2023-06-19T12:12:08;99651.03;;;26.62;50.97
74905;BME280;63465;50.862;6.220;2023-06-19T12:14:34;99651.03;;;27.09;50.37
74905;BME280;63465;50.862;6.220;2023-06-19T12:16:59;99658.75;;;26.82;50.98
74905;BME280;63465;50.862;6.220;2023-06-19T12:19:25;99655.75;;;27.53;50.36
74905;BME280;63465;50.862;6.220;2023-06-19T12:21:51;99648.75;;;26.51;52.38
74905;BME280;63465;50.862;6.220;2023-06-19T12:24:16;99647.06;;;28.24;48.43
74905;BME280;63465;50.862;6.220;2023-06-19T12:26:41;99656.94;;;28.40;48.54
74905;BME280;63465;50.862;6.220;2023-06-19T12:29:07;99650.06;;;28.44;47.15
74905;BME280;63465;50.862;6.220;2023-06-19T12:31:33;99658.69;;;28.47;47.90
74905;BME280;63465;50.862;6.220;2023-06-19T12:33:59;99654.22;;;27.50;48.57
74905;BME280;63465;50.862;6.220;2023-06-19T12:36:26;99657.34;;;28.22;47.75
74905;BME280;63465;50.862;6.220;2023-06-19T12:38:52;99645.34;;;27.18;49.28
74905;BME280;63465;50.862;6.220;2023-06-19T12:41:18;99650.41;;;27.45;49.03
74905;BME280;63465;50.862;6.220;2023-06-19T12:43:44;99639.22;;;28.36;47.63
74905;BME280;63465;50.862;6.220;2023-06-19T12:46:09;99636.19;;;27.34;48.92
74905;BME280;63465;50.862;6.220;2023-06-19T12:48:34;99635.78;;;26.99;51.00
74905;BME280;63465;50.862;6.220;2023-06-19T12:51:00;99638.69;;;28.25;48.57
74905;BME280;63465;50.862;6.220;2023-06-19T12:53:25;99641.19;;;27.75;48.89